Friday, February 23, 2018, 6:29 PM GMT
Back to Local

CYYZ, Toronto Pearson Int'L. Ont.

Location: , , Canada Lat: 43.667
Local Time: 6:29 PM GMT (18:29 GMT) Lon: -79.633
Time Zone: GMT Elev: 567 ft

Show me the last for .
Show Decoded

2018-02-23 18:00 METAR CYYZ 231800Z 11003KT 080V170 4SM -RA BR BKN004 OVC010 03/01 A3008 RMK
                 SF5SC3 SLP194 =
2018-02-23 17:46 METAR CYYZ 231746Z 13006KT 4SM R23/5500VP6000FT/D -RA BR BKN005 OVC010 03/01
                 A3008 RMK SF5SC3 SLP196 =
2018-02-23 17:00 METAR CYYZ 231700Z 13006KT 3SM -RA BR SCT005 OVC010 03/01 A3012 RMK SF3SC5
                 PRESFR SLP207 =
2018-02-23 16:00 METAR CYYZ 231600Z 12007KT 6SM -RA BR SCT007 OVC013 02/01 A3016 RMK SF3SC5
                 PRESFR SLP221 =
2018-02-23 15:53 METAR CYYZ 231553Z 11007KT 6SM -RA BR SCT007 OVC013 02/01 A3017 RMK ST3SC5
                 SLP224 =
2018-02-23 15:00 METAR CYYZ 231500Z 10008KT 6SM -DZ BR SCT007 OVC014 01/00 A3022 RMK SF3ST5
                 SLP242 =
2018-02-23 14:14 METAR CYYZ 231414Z 13010KT 6SM -DZ BR SCT005 OVC009 01/M00 A3025 RMK SF4ST4
                 SLP252 =
2018-02-23 14:00 METAR CYYZ 231400Z 12008G16KT 2 1/2SM -DZ BR BKN006 OVC010 01/M00 A3025 RMK
                 FG3ST3ST2 SLP252 =
2018-02-23 13:33 METAR CYYZ 231333Z 10009KT 1 1/4SM -DZ BR OVC006 01/M01 A3028 RMK FG5ST3 PRESFR
                 SLP262 =
2018-02-23 13:08 METAR CYYZ 231308Z 11009G15KT 2 1/2SM -DZ BR OVC007 01/M01 A3031 RMK ST8 SLP272
                 =
2018-02-23 13:00 METAR CYYZ 231300Z 10010G17KT 4SM BR OVC006 01/M01 A3031 RMK ST8 SLP273 =
2018-02-23 12:00 METAR CYYZ 231200Z 10010G18KT 8SM OVC005 00/M01 A3036 RMK ST8 SLP292 =
2018-02-23 11:00 METAR CYYZ 231100Z 10010G18KT 10SM OVC005 00/M02 A3040 RMK ST8 SLP303 =
2018-02-23 10:00 METAR CYYZ 231000Z 10011G17KT 10SM BKN008 OVC012 M01/M03 A3043 RMK ST6ST2 SLP314
                 =
2018-02-23 09:00 METAR CYYZ 230900Z 10010G17KT 15SM BKN012 OVC035 M01/M04 A3047 RMK SC6SC2 SLP329
                 =
2018-02-23 08:00 METAR CYYZ 230800Z 09009KT 15SM BKN012 OVC028 M01/M05 A3051 RMK SC5SC3 SLP342 =
2018-02-23 07:00 METAR CYYZ 230700Z 09007KT 15SM BKN015 OVC035 M01/M05 A3056 RMK SC5SC3 SLP357 =
2018-02-23 06:00 METAR CYYZ 230600Z 09008KT 15SM OVC015 M01/M05 A3058 RMK SC8 SLP365 =
2018-02-23 05:00 METAR CYYZ 230500Z 10010KT 15SM OVC015 M01/M05 A3060 RMK SC8 SLP371 =
2018-02-23 04:00 METAR CYYZ 230400Z 09011KT 15SM SCT025 OVC230 M01/M06 A3061 RMK SC4CI4 SLP376 =
2018-02-23 03:00 METAR CYYZ 230300Z 09006KT 15SM FEW140 BKN240 M01/M05 A3064 RMK AC2CI5 SLP385 =
2018-02-23 02:00 METAR CYYZ 230200Z 09005KT 15SM FEW025 BKN240 M01/M06 A3064 RMK SC1CI6 SC TR
                 SLP385 =
2018-02-23 01:00 METAR CYYZ 230100Z 08005KT 15SM FEW220 M01/M06 A3063 RMK CI1 SLP383 =
2018-02-23 00:00 METAR CYYZ 230000Z 10006KT 15SM FEW025 M01/M07 A3065 RMK SC1 SC TR SLP388 =
2018-02-22 23:00 METAR CYYZ 222300Z 08008KT 15SM FEW025 FEW100 M00/M07 A3062 RMK SC1AC1 SLP378 =
2018-02-22 22:00 METAR CYYZ 222200Z 10007KT 15SM SCT023 SCT120 01/M07 A3063 RMK SC3AC1 SLP384 =
2018-02-22 21:00 METAR CYYZ 222100Z 08004KT 15SM BKN026 01/M06 A3062 RMK SC6 SLP380 =
2018-02-22 20:00 METAR CYYZ 222000Z 09008KT 15SM FEW020 BKN025 BKN120 01/M06 A3062 RMK CF1SC6AC1
                 CF TR SLP381 =
2018-02-22 19:00 METAR CYYZ 221900Z 08007KT 15SM FEW020 BKN026 BKN110 01/M05 A3065 RMK CF1SC5AS2
                 CF TR SLP390 =

Support USWX by starting your Amazon purchase here.